createdAt,value
2018-01-06T00:01:20.934Z,44.30
2018-01-06T00:03:46.746Z,44.67
2018-01-06T00:06:12.566Z,45.36
2018-01-06T00:08:38.370Z,44.69
2018-01-06T00:11:04.219Z,44.58
2018-01-06T00:13:30.034Z,44.51
2018-01-06T00:15:55.880Z,44.61
2018-01-06T00:18:22.522Z,44.54
2018-01-06T00:20:48.325Z,44.72
2018-01-06T00:23:14.138Z,44.39
2018-01-06T00:25:39.950Z,44.55
2018-01-06T00:28:06.538Z,44.77
2018-01-06T00:30:33.181Z,44.47
2018-01-06T00:32:58.988Z,44.60
2018-01-06T00:35:24.793Z,44.67
2018-01-06T00:37:51.461Z,44.58
2018-01-06T00:40:17.266Z,44.66
2018-01-06T00:42:43.068Z,44.43
2018-01-06T00:45:08.923Z,44.55
2018-01-06T00:47:34.737Z,44.54
2018-01-06T00:50:00.552Z,44.53
2018-01-06T00:52:26.367Z,44.46
2018-01-06T00:54:52.186Z,44.38
2018-01-06T00:57:17.998Z,44.62
2018-01-06T00:59:43.802Z,44.51
2018-01-06T01:02:09.645Z,44.75
2018-01-06T01:04:35.458Z,44.58
2018-01-06T01:07:02.262Z,44.72
2018-01-06T01:09:28.072Z,44.51
2018-01-06T01:11:54.769Z,44.51
2018-01-06T01:14:20.574Z,44.48
2018-01-06T01:16:46.409Z,44.58
2018-01-06T01:19:13.097Z,44.65
2018-01-06T01:21:38.902Z,44.50
2018-01-06T01:24:04.750Z,44.58
2018-01-06T01:26:31.489Z,44.42
2018-01-06T01:28:57.486Z,44.61
2018-01-06T01:31:24.168Z,44.64
2018-01-06T01:33:50.989Z,44.83
2018-01-06T01:36:17.699Z,44.78
2018-01-06T01:38:44.499Z,44.53
2018-01-06T01:41:10.301Z,44.58
2018-01-06T01:43:36.109Z,44.78
2018-01-06T01:46:02.779Z,44.41
2018-01-06T01:48:29.486Z,44.52
2018-01-06T01:50:55.338Z,44.57
2018-01-06T01:53:21.156Z,44.16
2018-01-06T01:55:46.965Z,44.31
2018-01-06T01:58:12.779Z,44.39
2018-01-06T02:00:38.574Z,44.57
2018-01-06T02:03:05.226Z,44.28
2018-01-06T02:05:31.029Z,44.43
2018-01-06T02:07:56.838Z,44.45
2018-01-06T02:10:22.649Z,44.63
2018-01-06T02:12:48.454Z,44.23
2018-01-06T02:15:14.262Z,44.53
2018-01-06T02:17:40.899Z,44.61
2018-01-06T02:20:06.709Z,44.62
2018-01-06T02:22:33.462Z,44.57
2018-01-06T02:24:59.293Z,44.46
2018-01-06T02:27:26.007Z,44.57
2018-01-06T02:29:52.809Z,44.66
2018-01-06T02:32:18.622Z,44.48
2018-01-06T02:34:44.440Z,44.56
2018-01-06T02:37:11.096Z,44.65
2018-01-06T02:39:36.911Z,44.26
2018-01-06T02:42:02.718Z,45.04
2018-01-06T02:44:28.576Z,44.52
2018-01-06T02:46:54.386Z,44.47
2018-01-06T02:49:21.068Z,44.71
2018-01-06T02:51:47.814Z,44.50
2018-01-06T02:54:14.582Z,44.57
2018-01-06T02:56:41.389Z,44.65
2018-01-06T02:59:07.198Z,44.55
2018-01-06T03:01:33.832Z,44.77
2018-01-06T03:04:00.634Z,44.80
2018-01-06T03:06:27.341Z,44.79
2018-01-06T03:08:53.149Z,44.57
2018-01-06T03:11:18.959Z,45.29
2018-01-06T03:13:45.781Z,44.60
2018-01-06T03:16:11.587Z,44.65
2018-01-06T03:18:37.398Z,44.73
2018-01-06T03:21:03.210Z,44.52
2018-01-06T03:23:29.954Z,45.02
2018-01-06T03:25:55.819Z,44.94
2018-01-06T03:28:21.626Z,45.57
2018-01-06T03:30:47.436Z,45.44
2018-01-06T03:33:13.247Z,44.88
2018-01-06T03:35:39.054Z,45.12
2018-01-06T03:38:04.897Z,45.26
2018-01-06T03:40:30.742Z,45.10
2018-01-06T03:42:56.586Z,45.18
2018-01-06T03:45:23.246Z,45.29
2018-01-06T03:47:49.050Z,44.69
2018-01-06T03:50:14.861Z,45.18
2018-01-06T03:52:40.667Z,45.13
2018-01-06T03:55:06.475Z,44.92
2018-01-06T03:57:32.281Z,45.20
2018-01-06T03:59:58.089Z,44.71
2018-01-06T04:02:23.903Z,44.74
2018-01-06T04:04:49.711Z,44.49
2018-01-06T04:07:15.556Z,44.79
2018-01-06T04:09:41.361Z,45.30
2018-01-06T04:12:08.189Z,45.58
2018-01-06T04:14:33.993Z,45.71
2018-01-06T04:16:59.803Z,45.21
2018-01-06T04:19:25.613Z,44.81
2018-01-06T04:21:51.447Z,44.94
2018-01-06T04:24:17.269Z,44.59
2018-01-06T04:26:43.077Z,44.54
2018-01-06T04:29:08.884Z,44.55
2018-01-06T04:31:34.691Z,44.86
2018-01-06T04:34:00.489Z,44.77
2018-01-06T04:36:26.294Z,44.88
2018-01-06T04:38:52.096Z,44.69
2018-01-06T04:41:17.957Z,44.66
2018-01-06T04:43:44.674Z,44.40
2018-01-06T04:46:10.478Z,44.44
2018-01-06T04:48:37.297Z,44.47
2018-01-06T04:51:04.054Z,45.00
2018-01-06T04:53:29.904Z,44.73
2018-01-06T04:55:56.575Z,44.52
2018-01-06T04:58:23.341Z,44.82
2018-01-06T05:00:50.061Z,44.78
2018-01-06T05:03:16.889Z,44.65
2018-01-06T05:05:42.694Z,44.58
2018-01-06T05:08:09.486Z,44.59
2018-01-06T05:10:36.310Z,44.70
2018-01-06T05:13:03.045Z,44.80
2018-01-06T05:15:28.890Z,44.64
2018-01-06T05:20:28.394Z,44.82
2018-01-06T05:22:55.181Z,44.54
2018-01-06T05:25:22.042Z,44.42
2018-01-06T05:27:48.850Z,44.29
2018-01-06T05:30:14.695Z,44.25
2018-01-06T05:32:41.398Z,44.58
2018-01-06T05:35:08.194Z,44.64
2018-01-06T05:37:34.002Z,44.59
2018-01-06T05:39:59.845Z,44.25
2018-01-06T05:42:25.646Z,44.17
2018-01-06T05:44:51.457Z,44.40
2018-01-06T05:47:17.272Z,44.63
2018-01-06T05:49:43.113Z,44.47
2018-01-06T05:52:08.971Z,44.76
2018-01-06T05:54:35.626Z,44.41
2018-01-06T05:57:01.433Z,44.38
2018-01-06T05:59:27.256Z,44.11
2018-01-06T06:01:53.069Z,44.10
2018-01-06T06:04:18.926Z,44.29
2018-01-06T06:06:44.757Z,44.16
2018-01-06T06:09:10.579Z,44.30
2018-01-06T06:11:36.391Z,44.07
2018-01-06T06:14:02.194Z,43.99
2018-01-06T06:16:28.010Z,44.03
2018-01-06T06:18:53.849Z,44.14
2018-01-06T06:21:19.667Z,44.42
2018-01-06T06:23:45.469Z,44.39
2018-01-06T06:26:11.286Z,44.03
2018-01-06T06:28:37.085Z,44.53
2018-01-06T06:31:02.890Z,44.20
2018-01-06T06:33:28.726Z,44.17
2018-01-06T06:35:55.369Z,44.05
2018-01-06T06:38:22.121Z,44.14
2018-01-06T06:40:48.897Z,44.26
2018-01-06T06:43:15.692Z,44.22
2018-01-06T06:45:42.493Z,44.45
2018-01-06T06:48:09.327Z,44.24
2018-01-06T06:50:35.137Z,45.03
2018-01-06T06:53:01.017Z,45.41
2018-01-06T06:55:26.862Z,46.57
2018-01-06T06:57:52.685Z,47.86
2018-01-06T07:00:18.490Z,48.27
2018-01-06T07:02:44.308Z,52.34
2018-01-06T07:05:10.166Z,49.06
2018-01-06T07:07:35.990Z,50.56
2018-01-06T07:10:01.800Z,49.79
2018-01-06T07:12:27.601Z,50.72
2018-01-06T07:14:53.401Z,50.49
2018-01-06T07:17:19.253Z,52.76
2018-01-06T07:19:45.071Z,53.19
2018-01-06T07:22:10.878Z,51.59
2018-01-06T07:24:36.698Z,51.06
2018-01-06T07:27:02.549Z,51.33
2018-01-06T07:29:28.366Z,54.39
2018-01-06T07:31:54.216Z,51.71
2018-01-06T07:34:21.031Z,51.16
2018-01-06T07:36:46.845Z,51.37
2018-01-06T07:39:13.197Z,52.25
2018-01-06T07:41:39.977Z,51.56
2018-01-06T07:44:05.801Z,52.00
2018-01-06T07:46:31.608Z,52.73
2018-01-06T07:48:57.407Z,51.47
2018-01-06T07:51:23.207Z,53.24
2018-01-06T07:53:49.060Z,52.41
2018-01-06T07:56:15.909Z,51.47
2018-01-06T07:58:42.709Z,52.22
2018-01-06T08:01:08.694Z,52.93
2018-01-06T08:03:35.449Z,53.57
2018-01-06T08:06:01.257Z,51.94
2018-01-06T08:08:27.078Z,52.17
2018-01-06T08:10:53.690Z,50.74
2018-01-06T08:13:20.419Z,50.41
2018-01-06T08:15:47.193Z,51.31
2018-01-06T08:18:12.997Z,51.11
2018-01-06T08:20:38.819Z,51.06
2018-01-06T08:23:04.667Z,50.20
2018-01-06T08:25:30.679Z,50.81
2018-01-06T08:27:56.517Z,50.53
2018-01-06T08:30:22.409Z,50.28
2018-01-06T08:32:49.025Z,50.19
2018-01-06T08:35:14.829Z,50.74
2018-01-06T08:37:40.658Z,52.50
2018-01-06T08:40:06.461Z,51.35
2018-01-06T08:42:32.265Z,51.96
2018-01-06T08:44:58.074Z,52.62
2018-01-06T08:47:23.922Z,52.18
2018-01-06T08:49:49.734Z,52.95
2018-01-06T08:52:15.612Z,52.66
2018-01-06T08:54:41.491Z,51.28
2018-01-06T08:57:08.252Z,51.49
2018-01-06T08:59:34.102Z,50.31
2018-01-06T09:01:59.905Z,50.04
2018-01-06T09:04:25.834Z,50.48
2018-01-06T09:06:51.629Z,50.42
2018-01-06T09:09:18.417Z,50.31
2018-01-06T09:11:44.217Z,51.10
2018-01-06T09:14:10.026Z,50.60
2018-01-06T09:16:35.830Z,50.30
2018-01-06T09:19:01.635Z,50.44
2018-01-06T09:21:27.445Z,51.15
2018-01-06T09:23:53.293Z,53.38
2018-01-06T09:26:19.090Z,54.07
2018-01-06T09:28:45.749Z,52.70
2018-01-06T09:31:11.554Z,52.54
2018-01-06T09:33:37.359Z,54.39
2018-01-06T09:38:26.540Z,55.55
2018-01-06T09:40:52.434Z,54.04
2018-01-06T09:43:19.299Z,52.24
2018-01-06T09:45:45.133Z,52.11
2018-01-06T09:48:11.758Z,51.37
2018-01-06T09:50:38.554Z,51.94
2018-01-06T09:53:04.413Z,51.15
2018-01-06T09:55:30.218Z,51.63
2018-01-06T09:57:56.051Z,51.09
2018-01-06T10:00:22.879Z,51.03
2018-01-06T10:02:48.745Z,51.23
2018-01-06T10:05:14.559Z,52.79
2018-01-06T10:07:40.387Z,52.00
2018-01-06T10:10:06.198Z,51.41
2018-01-06T10:12:32.900Z,51.62
2018-01-06T10:14:59.657Z,51.57
2018-01-06T10:17:25.457Z,51.25
2018-01-06T10:19:51.519Z,51.14
2018-01-06T10:22:17.370Z,51.07
2018-01-06T10:24:44.094Z,51.01
2018-01-06T10:27:09.917Z,50.90
2018-01-06T10:29:35.729Z,50.72
2018-01-06T10:32:01.546Z,50.69
2018-01-06T10:34:28.319Z,51.81
2018-01-06T10:36:55.173Z,51.26
2018-01-06T10:39:20.990Z,50.98
2018-01-06T10:41:46.937Z,50.94
2018-01-06T10:44:12.762Z,50.85
2018-01-06T10:46:38.570Z,50.87
2018-01-06T10:49:04.421Z,50.71
2018-01-06T10:51:30.227Z,50.78
2018-01-06T10:53:56.044Z,50.53
2018-01-06T10:56:21.858Z,50.80
2018-01-06T10:58:47.676Z,50.75
2018-01-06T11:01:19.627Z,50.40
2018-01-06T11:03:45.455Z,51.28
2018-01-06T11:06:11.296Z,50.72
2018-01-06T11:08:37.121Z,51.34
2018-01-06T11:11:02.995Z,51.65
2018-01-06T11:13:29.739Z,51.21
2018-01-06T11:15:55.733Z,50.47
2018-01-06T11:18:21.605Z,51.12
2018-01-06T11:20:47.572Z,50.92
2018-01-06T11:23:14.366Z,51.57
2018-01-06T11:25:40.366Z,50.85
2018-01-06T11:28:07.162Z,51.24
2018-01-06T11:30:33.972Z,52.15
2018-01-06T11:32:59.817Z,51.87
2018-01-06T11:35:25.638Z,51.26
2018-01-06T11:37:51.653Z,51.82
2018-01-06T11:40:18.520Z,51.59
2018-01-06T11:42:44.326Z,51.60
2018-01-06T11:45:10.138Z,51.18
2018-01-06T11:47:35.945Z,51.27
2018-01-06T11:50:01.756Z,51.13
2018-01-06T11:52:28.481Z,51.31
2018-01-06T11:54:54.329Z,50.62
2018-01-06T11:57:20.143Z,50.40
2018-01-06T11:59:45.984Z,51.92
2018-01-06T12:02:11.789Z,51.92
2018-01-06T12:04:37.602Z,51.23
2018-01-06T12:07:03.409Z,51.29
2018-01-06T12:09:29.236Z,51.20
2018-01-06T12:11:55.064Z,51.02
2018-01-06T12:14:20.886Z,51.43
2018-01-06T12:16:46.709Z,51.29
2018-01-06T12:19:12.530Z,51.17
2018-01-06T12:21:38.463Z,51.07
2018-01-06T12:24:04.343Z,51.38
2018-01-06T12:26:30.146Z,51.49
2018-01-06T12:28:55.962Z,53.27
2018-01-06T12:31:21.801Z,52.22
2018-01-06T12:33:47.615Z,51.93
2018-01-06T12:36:13.531Z,52.04
2018-01-06T12:38:39.522Z,51.96
2018-01-06T12:41:06.321Z,52.27
2018-01-06T12:43:33.159Z,52.11
2018-01-06T12:45:59.058Z,51.86
2018-01-06T12:48:24.906Z,52.24
2018-01-06T12:50:50.722Z,51.78
2018-01-06T12:53:17.530Z,51.70
2018-01-06T12:55:43.391Z,51.76
2018-01-06T12:58:09.221Z,53.58
2018-01-06T13:00:35.056Z,52.57
2018-01-06T13:03:00.870Z,52.05
2018-01-06T13:05:26.683Z,51.96
2018-01-06T13:07:52.555Z,51.92
2018-01-06T13:10:18.384Z,52.00
2018-01-06T13:12:44.206Z,52.19
2018-01-06T13:15:10.848Z,52.11
2018-01-06T13:17:36.674Z,51.58
2018-01-06T13:20:02.530Z,51.52
2018-01-06T13:22:28.418Z,51.80
2018-01-06T13:24:55.243Z,52.88
2018-01-06T13:27:22.011Z,52.85
2018-01-06T13:29:47.849Z,51.53
2018-01-06T13:32:13.734Z,51.34
2018-01-06T13:34:39.589Z,51.21
2018-01-06T13:37:06.590Z,51.34
2018-01-06T13:39:32.626Z,50.98
2018-01-06T13:41:58.608Z,51.47
2018-01-06T13:44:24.597Z,51.25
2018-01-06T13:46:51.503Z,50.75
2018-01-06T13:49:17.427Z,51.17
2018-01-06T13:51:43.249Z,51.19
2018-01-06T13:54:09.070Z,52.95
2018-01-06T13:56:34.878Z,52.62
2018-01-06T13:59:00.698Z,50.86
2018-01-06T14:01:26.538Z,50.33
2018-01-06T14:03:52.555Z,50.26
2018-01-06T14:06:18.445Z,49.63
2018-01-06T14:08:44.490Z,50.08
2018-01-06T14:11:10.343Z,50.80
2018-01-06T14:13:36.145Z,49.09
2018-01-06T14:16:01.989Z,50.04
2018-01-06T14:18:27.793Z,50.07
2018-01-06T14:20:53.642Z,50.46
2018-01-06T14:23:33.550Z,51.54
2018-01-06T14:25:59.405Z,52.14
2018-01-06T14:28:25.218Z,51.38
2018-01-06T14:30:51.060Z,51.02
2018-01-06T14:33:17.857Z,50.94
2018-01-06T14:35:43.673Z,50.99
2018-01-06T14:38:09.483Z,50.78
2018-01-06T14:40:35.399Z,51.35
2018-01-06T14:43:01.230Z,51.49
2018-01-06T14:45:27.934Z,51.70
2018-01-06T14:47:53.740Z,51.25
2018-01-06T14:50:19.587Z,51.37
2018-01-06T14:52:45.396Z,53.31
2018-01-06T14:55:15.203Z,52.49
2018-01-06T14:57:41.129Z,52.09
2018-01-06T15:00:07.795Z,51.81
2018-01-06T15:02:33.610Z,51.77
2018-01-06T15:04:59.424Z,51.36
2018-01-06T15:07:25.247Z,51.36
2018-01-06T15:09:51.070Z,50.73
2018-01-06T15:12:16.890Z,50.64
2018-01-06T15:14:42.697Z,50.85
2018-01-06T15:17:09.340Z,50.47
2018-01-06T15:19:35.153Z,51.19
2018-01-06T15:22:00.973Z,52.80
2018-01-06T15:24:27.738Z,51.63
2018-01-06T15:26:53.542Z,51.39
2018-01-06T15:29:19.423Z,51.28
2018-01-06T15:31:45.251Z,51.57
2018-01-06T15:34:11.120Z,51.49
2018-01-06T15:36:36.923Z,51.35
2018-01-06T15:39:02.771Z,51.50
2018-01-06T15:41:28.674Z,51.14
2018-01-06T15:43:54.591Z,50.95
2018-01-06T15:46:20.423Z,51.36
2018-01-06T15:48:47.449Z,52.28
2018-01-06T15:51:14.098Z,52.86
2018-01-06T15:53:39.913Z,52.32
2018-01-06T15:56:05.836Z,51.49
2018-01-06T15:58:31.653Z,51.81
2018-01-06T16:00:57.466Z,51.95
2018-01-06T16:03:23.290Z,51.58
2018-01-06T16:05:49.120Z,51.21
2018-01-06T16:08:14.938Z,51.51
2018-01-06T16:10:40.762Z,51.34
2018-01-06T16:13:07.756Z,51.36
2018-01-06T16:15:34.690Z,51.13
2018-01-06T16:18:00.526Z,51.92
2018-01-06T16:20:26.346Z,52.70
2018-01-06T16:22:52.299Z,52.26
2018-01-06T16:25:18.242Z,51.79
2018-01-06T16:27:44.069Z,51.72
2018-01-06T16:30:09.889Z,51.66
2018-01-06T16:32:35.726Z,51.60
2018-01-06T16:35:01.606Z,51.73
2018-01-06T16:37:27.426Z,51.72
2018-01-06T16:39:54.190Z,51.41
2018-01-06T16:42:20.911Z,51.60
2018-01-06T16:44:46.742Z,51.39
2018-01-06T16:47:12.558Z,52.92
2018-01-06T16:49:38.365Z,52.56
2018-01-06T16:52:04.178Z,51.89
2018-01-06T16:54:29.999Z,51.91
2018-01-06T16:56:55.874Z,51.82
2018-01-06T16:59:21.854Z,51.13
2018-01-06T17:01:47.669Z,51.13
2018-01-06T17:04:14.353Z,51.34
2018-01-06T17:06:41.009Z,51.23
2018-01-06T17:09:06.906Z,51.33
2018-01-06T17:11:32.734Z,50.88
2018-01-06T17:13:58.618Z,51.31
2018-01-06T17:16:24.485Z,53.09
2018-01-06T17:18:51.327Z,49.92
2018-01-06T17:21:17.140Z,51.22
2018-01-06T17:23:43.790Z,50.87
2018-01-06T17:26:10.542Z,51.21
2018-01-06T17:28:37.390Z,50.88
2018-01-06T17:31:03.235Z,50.90
2018-01-06T17:33:29.105Z,50.39
2018-01-06T17:35:55.086Z,50.29
2018-01-06T17:38:20.948Z,50.42
2018-01-06T17:40:46.922Z,50.37
2018-01-06T17:43:12.775Z,50.20
2018-01-06T17:45:38.634Z,52.09
2018-01-06T17:48:05.287Z,51.34
2018-01-06T17:50:31.108Z,51.39
2018-01-06T17:52:56.939Z,50.96
2018-01-06T17:55:22.802Z,50.69
2018-01-06T17:57:48.743Z,50.59
2018-01-06T18:00:14.626Z,50.86
2018-01-06T18:02:40.456Z,50.77
2018-01-06T18:05:06.274Z,50.93
2018-01-06T18:07:32.742Z,50.71
2018-01-06T18:09:58.594Z,50.57
2018-01-06T18:12:24.412Z,50.27
2018-01-06T18:14:51.153Z,52.42
2018-01-06T18:17:16.973Z,51.57
2018-01-06T18:19:42.794Z,51.34
2018-01-06T18:22:08.608Z,51.18
2018-01-06T18:24:34.424Z,51.11
2018-01-06T18:27:00.415Z,51.09
2018-01-06T18:29:27.102Z,47.33
2018-01-06T18:31:53.867Z,47.37
2018-01-06T18:34:19.690Z,48.13
2018-01-06T18:36:45.513Z,48.39
2018-01-06T18:39:11.354Z,47.91
2018-01-06T18:41:37.195Z,50.90
2018-01-06T18:44:03.047Z,49.47
2018-01-06T18:46:28.947Z,49.62
2018-01-06T18:48:54.769Z,49.22
2018-01-06T18:51:21.659Z,49.10
2018-01-06T18:53:47.704Z,49.24
2018-01-06T18:56:13.515Z,49.35
2018-01-06T18:58:40.286Z,49.06
2018-01-06T19:01:06.964Z,49.35
2018-01-06T19:03:33.805Z,49.42
2018-01-06T19:06:00.749Z,49.83
2018-01-06T19:08:26.699Z,50.74
2018-01-06T19:10:52.534Z,50.83
2018-01-06T19:13:18.406Z,50.76
2018-01-06T19:15:45.190Z,51.14
2018-01-06T19:18:11.034Z,51.18
2018-01-06T19:20:36.889Z,51.07
2018-01-06T19:23:02.719Z,51.19
2018-01-06T19:25:28.584Z,51.84
2018-01-06T19:27:54.397Z,51.35
2018-01-06T19:30:20.298Z,51.72
2018-01-06T19:32:46.115Z,50.98
2018-01-06T19:35:11.966Z,51.89
2018-01-06T19:37:37.817Z,51.51
2018-01-06T19:40:04.640Z,52.21
2018-01-06T19:42:30.614Z,52.05
2018-01-06T19:44:56.459Z,51.89
2018-01-06T19:47:22.270Z,52.47
2018-01-06T19:49:48.085Z,52.71
2018-01-06T19:52:13.926Z,52.30
2018-01-06T19:54:39.774Z,52.20
2018-01-06T19:57:05.608Z,52.17
2018-01-06T19:59:31.466Z,52.04
2018-01-06T20:01:57.336Z,52.48
2018-01-06T20:04:23.162Z,51.87
2018-01-06T20:06:49.980Z,52.52
2018-01-06T20:09:16.782Z,51.53
2018-01-06T20:11:43.569Z,51.72
2018-01-06T20:14:10.290Z,51.49
2018-01-06T20:16:36.135Z,51.47
2018-01-06T20:19:01.958Z,51.70
2018-01-06T20:21:27.778Z,51.39
2018-01-06T20:23:53.629Z,52.28
2018-01-06T20:26:19.471Z,51.70
2018-01-06T20:28:45.300Z,51.91
2018-01-06T20:31:11.131Z,52.93
2018-01-06T20:33:36.986Z,51.28
2018-01-06T20:36:02.806Z,52.86
2018-01-06T20:38:28.786Z,51.90
2018-01-06T20:40:54.864Z,51.50
2018-01-06T20:43:20.700Z,51.41
2018-01-06T20:45:46.564Z,50.61
2018-01-06T20:48:12.479Z,51.02
2018-01-06T20:50:38.526Z,50.85
2018-01-06T20:53:04.498Z,50.31
2018-01-06T20:55:30.318Z,50.51
2018-01-06T20:57:56.190Z,50.26
2018-01-06T21:00:22.063Z,50.35
2018-01-06T21:02:47.917Z,50.34
2018-01-06T21:05:13.925Z,51.40
2018-01-06T21:07:40.586Z,51.52
2018-01-06T21:10:07.501Z,50.98
2018-01-06T21:12:34.306Z,50.50
2018-01-06T21:15:00.286Z,50.51
2018-01-06T21:17:26.119Z,50.49
2018-01-06T21:19:52.941Z,50.35
2018-01-06T21:22:18.770Z,50.21
2018-01-06T21:24:44.595Z,50.08
2018-01-06T21:27:10.617Z,50.14
2018-01-06T21:29:36.766Z,49.92
2018-01-06T21:32:02.620Z,49.87
2018-01-06T21:34:28.485Z,52.31
2018-01-06T21:36:54.385Z,50.76
2018-01-06T21:39:20.207Z,50.25
2018-01-06T21:41:46.064Z,50.14
2018-01-06T21:44:11.929Z,49.95
2018-01-06T21:46:37.756Z,49.78
2018-01-06T21:49:04.395Z,50.13
2018-01-06T21:51:30.214Z,49.73
2018-01-06T21:53:56.895Z,49.92
2018-01-06T21:56:22.716Z,49.67
2018-01-06T21:58:48.601Z,49.65
2018-01-06T22:01:14.465Z,50.00
2018-01-06T22:03:40.311Z,51.71
2018-01-06T22:06:08.334Z,50.79
2018-01-06T22:08:34.167Z,50.51
2018-01-06T22:10:59.992Z,50.03
2018-01-06T22:13:25.813Z,49.99
2018-01-06T22:15:51.748Z,49.95
2018-01-06T22:18:17.712Z,50.13
2018-01-06T22:20:43.685Z,50.11
2018-01-06T22:23:10.912Z,49.84
2018-01-06T22:25:36.750Z,50.00
2018-01-06T22:28:02.584Z,49.61
2018-01-06T22:30:28.429Z,49.96
2018-01-06T22:32:54.454Z,51.33
2018-01-06T22:35:20.270Z,50.55
2018-01-06T22:37:48.569Z,50.20
2018-01-06T22:40:14.483Z,50.19
2018-01-06T22:42:40.390Z,49.90
2018-01-06T22:45:06.205Z,49.74
2018-01-06T22:47:32.950Z,49.71
2018-01-06T22:49:58.775Z,49.57
2018-01-06T22:52:25.594Z,49.56
2018-01-06T22:54:52.280Z,49.58
2018-01-06T22:57:18.256Z,49.74
2018-01-06T22:59:44.071Z,50.12
2018-01-06T23:02:09.895Z,51.07
2018-01-06T23:04:35.775Z,50.20
2018-01-06T23:07:01.586Z,50.05
2018-01-06T23:09:27.402Z,49.86
2018-01-06T23:11:53.217Z,49.49
2018-01-06T23:14:19.034Z,49.70
2018-01-06T23:16:44.874Z,49.54
2018-01-06T23:19:10.702Z,49.44
2018-01-06T23:21:36.527Z,49.55
2018-01-06T23:24:02.345Z,49.61
2018-01-06T23:26:28.360Z,49.32
2018-01-06T23:28:54.389Z,50.61
2018-01-06T23:31:20.402Z,50.70
2018-01-06T23:33:46.219Z,49.90
2018-01-06T23:36:12.092Z,49.93
2018-01-06T23:38:37.944Z,49.58
2018-01-06T23:41:04.722Z,49.71
2018-01-06T23:43:30.539Z,49.46
2018-01-06T23:45:56.363Z,49.51
2018-01-06T23:48:22.191Z,49.42
2018-01-06T23:50:48.030Z,49.47
2018-01-06T23:53:13.867Z,49.30
2018-01-06T23:55:39.682Z,49.51
2018-01-06T23:58:05.503Z,50.91
